createdAt,value
2018-12-31T00:01:56.325Z,65.37
2018-12-31T00:04:27.552Z,65.41
2018-12-31T00:06:58.757Z,65.45
2018-12-31T00:09:29.937Z,65.42
2018-12-31T00:12:01.196Z,65.42
2018-12-31T00:14:32.312Z,65.44
2018-12-31T00:17:03.543Z,65.42
2018-12-31T00:19:34.741Z,65.42
2018-12-31T00:22:05.980Z,65.42
2018-12-31T00:24:37.203Z,65.43
2018-12-31T00:27:08.346Z,65.43
2018-12-31T00:29:39.557Z,65.44
2018-12-31T00:32:10.737Z,65.42
2018-12-31T00:34:42.080Z,65.37
2018-12-31T00:37:13.295Z,65.36
2018-12-31T00:39:44.660Z,65.35
2018-12-31T00:42:15.887Z,65.36
2018-12-31T00:44:47.116Z,65.32
2018-12-31T00:47:18.398Z,65.34
2018-12-31T00:49:49.555Z,65.33
2018-12-31T00:52:20.794Z,65.28
2018-12-31T00:54:52.014Z,65.25
2018-12-31T00:57:23.289Z,65.23
2018-12-31T00:59:54.478Z,65.23
2018-12-31T01:02:25.867Z,65.21
2018-12-31T01:04:57.284Z,65.21
2018-12-31T01:07:28.471Z,65.25
2018-12-31T01:09:59.763Z,65.26
2018-12-31T01:12:30.964Z,65.27
2018-12-31T01:15:02.153Z,65.29
2018-12-31T01:17:33.557Z,65.30
2018-12-31T01:20:04.761Z,65.30
2018-12-31T01:22:36.170Z,65.31
2018-12-31T01:25:07.473Z,65.34
2018-12-31T01:27:38.806Z,65.41
2018-12-31T01:30:10.085Z,65.44
2018-12-31T01:32:41.263Z,65.45
2018-12-31T01:35:12.475Z,65.47
2018-12-31T01:37:43.652Z,65.48
2018-12-31T01:40:14.847Z,65.54
2018-12-31T01:42:46.032Z,65.58
2018-12-31T01:45:17.422Z,65.61
2018-12-31T01:47:48.602Z,65.63
2018-12-31T01:50:19.764Z,65.65
2018-12-31T01:52:51.921Z,65.67
2018-12-31T01:55:23.213Z,65.68
2018-12-31T01:57:54.414Z,65.69
2018-12-31T02:00:25.830Z,65.70
2018-12-31T02:02:57.042Z,65.68
2018-12-31T02:05:28.257Z,65.66
2018-12-31T02:07:59.537Z,65.65
2018-12-31T02:10:30.779Z,65.66
2018-12-31T02:13:01.939Z,65.66
2018-12-31T02:15:34.334Z,65.65
2018-12-31T02:18:05.570Z,65.64
2018-12-31T02:20:36.745Z,65.66
2018-12-31T02:23:07.982Z,65.63
2018-12-31T02:25:39.198Z,65.65
2018-12-31T02:28:10.406Z,65.65
2018-12-31T02:30:41.698Z,65.68
2018-12-31T02:33:12.965Z,65.68
2018-12-31T02:35:44.278Z,65.71
2018-12-31T02:38:15.608Z,65.67
2018-12-31T02:40:46.802Z,65.64
2018-12-31T02:43:17.946Z,65.65
2018-12-31T02:45:49.234Z,65.61
2018-12-31T02:48:20.533Z,65.58
2018-12-31T02:50:51.931Z,65.62
2018-12-31T02:53:23.280Z,65.60
2018-12-31T02:55:54.547Z,65.58
2018-12-31T02:58:25.864Z,65.56
2018-12-31T03:00:57.068Z,65.57
2018-12-31T03:03:28.286Z,65.53
2018-12-31T03:05:59.411Z,65.49
2018-12-31T03:08:30.708Z,65.50
2018-12-31T03:11:01.942Z,65.49
2018-12-31T03:13:33.093Z,65.49
2018-12-31T03:16:04.294Z,65.47
2018-12-31T03:18:35.601Z,65.46
2018-12-31T03:21:06.887Z,65.43
2018-12-31T03:23:38.084Z,65.43
2018-12-31T03:26:09.298Z,65.38
2018-12-31T03:28:40.469Z,65.43
2018-12-31T03:31:11.705Z,65.45
2018-12-31T03:33:42.899Z,65.44
2018-12-31T03:36:14.075Z,65.40
2018-12-31T03:38:45.421Z,65.40
2018-12-31T03:41:16.639Z,65.37
2018-12-31T03:43:47.854Z,65.37
2018-12-31T03:46:19.027Z,65.34
2018-12-31T03:48:50.330Z,65.33
2018-12-31T03:51:21.465Z,65.31
2018-12-31T03:53:52.629Z,65.30
2018-12-31T03:56:23.942Z,65.28
2018-12-31T03:58:55.134Z,65.26
2018-12-31T04:01:26.377Z,65.29
2018-12-31T04:03:57.594Z,65.28
2018-12-31T04:06:28.810Z,65.27
2018-12-31T04:09:00.221Z,65.28
2018-12-31T04:11:32.157Z,65.30
2018-12-31T04:14:03.443Z,65.29
2018-12-31T04:16:34.565Z,65.33
2018-12-31T04:19:05.833Z,65.35
2018-12-31T04:21:37.087Z,65.37
2018-12-31T04:24:08.340Z,65.38
2018-12-31T04:26:39.561Z,65.42
2018-12-31T04:29:10.677Z,65.41
2018-12-31T04:31:41.924Z,65.44
2018-12-31T04:34:13.298Z,65.38
2018-12-31T04:36:44.575Z,65.37
2018-12-31T04:39:15.809Z,65.38
2018-12-31T04:41:47.031Z,65.42
2018-12-31T04:44:18.405Z,65.47
2018-12-31T04:46:50.573Z,65.49
2018-12-31T04:49:21.951Z,65.53
2018-12-31T04:51:53.100Z,65.51
2018-12-31T04:54:24.366Z,65.52
2018-12-31T04:56:55.714Z,65.54
2018-12-31T04:59:26.935Z,65.53
2018-12-31T05:01:58.215Z,65.56
2018-12-31T05:04:29.431Z,65.59
2018-12-31T05:07:00.610Z,65.59
2018-12-31T05:09:31.913Z,65.58
2018-12-31T05:12:04.373Z,65.59
2018-12-31T05:14:35.566Z,65.57
2018-12-31T05:17:06.718Z,65.58
2018-12-31T05:19:37.950Z,65.59
2018-12-31T05:22:09.148Z,65.56
2018-12-31T05:24:40.322Z,65.56
2018-12-31T05:27:11.641Z,65.53
2018-12-31T05:29:45.346Z,65.53
2018-12-31T05:32:16.612Z,65.51
2018-12-31T05:34:47.819Z,65.48
2018-12-31T05:37:19.111Z,65.48
2018-12-31T05:39:50.355Z,65.48
2018-12-31T05:42:21.781Z,65.46
2018-12-31T05:44:53.544Z,65.46
2018-12-31T05:47:24.839Z,65.44
2018-12-31T05:49:56.033Z,65.45
2018-12-31T05:52:27.302Z,65.45
2018-12-31T05:54:58.570Z,65.46
2018-12-31T05:57:29.903Z,65.45
2018-12-31T06:00:01.096Z,65.46
2018-12-31T06:02:32.330Z,65.49
2018-12-31T06:05:03.576Z,65.67
2018-12-31T06:07:34.812Z,66.02
2018-12-31T06:10:06.026Z,66.17
2018-12-31T06:12:37.299Z,66.29
2018-12-31T06:15:08.511Z,66.39
2018-12-31T06:17:39.909Z,66.42
2018-12-31T06:20:11.247Z,66.42
2018-12-31T06:22:42.705Z,66.46
2018-12-31T06:25:14.115Z,66.42
2018-12-31T06:27:45.341Z,66.37
2018-12-31T06:30:16.498Z,66.39
2018-12-31T06:32:47.747Z,66.39
2018-12-31T06:35:18.952Z,66.41
2018-12-31T06:37:50.185Z,66.42
2018-12-31T06:40:21.379Z,66.39
2018-12-31T06:42:52.700Z,66.35
2018-12-31T06:45:23.915Z,66.33
2018-12-31T06:47:55.179Z,66.32
2018-12-31T06:50:26.495Z,66.30
2018-12-31T06:52:57.811Z,66.29
2018-12-31T06:55:29.005Z,66.31
2018-12-31T06:58:00.259Z,66.32
2018-12-31T07:00:31.443Z,66.35
2018-12-31T07:03:02.753Z,66.32
2018-12-31T07:05:34.047Z,66.28
2018-12-31T07:08:05.312Z,66.30
2018-12-31T07:10:36.606Z,66.32
2018-12-31T07:13:07.762Z,66.34
2018-12-31T07:15:38.944Z,66.35
2018-12-31T07:18:10.133Z,66.36
2018-12-31T07:20:41.496Z,66.35
2018-12-31T07:23:12.726Z,66.35
2018-12-31T07:25:43.952Z,66.32
2018-12-31T07:28:15.127Z,66.31
2018-12-31T07:30:46.542Z,66.33
2018-12-31T07:33:17.781Z,66.32
2018-12-31T07:35:48.964Z,66.32
2018-12-31T07:38:20.174Z,66.28
2018-12-31T07:40:51.408Z,66.27
2018-12-31T07:43:22.585Z,66.27
2018-12-31T07:45:53.748Z,66.26
2018-12-31T07:48:24.999Z,66.26
2018-12-31T07:50:56.430Z,66.28
2018-12-31T07:53:27.672Z,66.29
2018-12-31T07:55:58.875Z,66.30
2018-12-31T07:58:30.141Z,66.28
2018-12-31T08:01:01.284Z,66.30
2018-12-31T08:03:32.463Z,66.29
2018-12-31T08:06:03.784Z,66.28
2018-12-31T08:08:34.903Z,66.26
2018-12-31T08:11:06.062Z,66.29
2018-12-31T08:13:37.328Z,66.31
2018-12-31T08:16:08.511Z,66.30
2018-12-31T08:18:39.811Z,66.33
2018-12-31T08:21:11.094Z,66.38
2018-12-31T08:23:42.310Z,66.44
2018-12-31T08:26:13.697Z,66.52
2018-12-31T08:28:45.217Z,66.58
2018-12-31T08:31:16.501Z,66.60
2018-12-31T08:33:47.846Z,66.62
2018-12-31T08:36:19.147Z,66.63
2018-12-31T08:38:50.473Z,66.61
2018-12-31T08:41:21.833Z,66.57
2018-12-31T08:43:53.094Z,66.56
2018-12-31T08:46:24.385Z,66.55
2018-12-31T08:48:55.685Z,66.55
2018-12-31T08:51:26.910Z,66.58
2018-12-31T08:54:01.101Z,66.58
2018-12-31T08:56:32.350Z,66.60
2018-12-31T08:59:04.029Z,66.59
2018-12-31T09:01:35.457Z,66.59
2018-12-31T09:04:07.082Z,66.61
2018-12-31T09:06:38.928Z,66.59
2018-12-31T09:09:10.325Z,66.58
2018-12-31T09:11:41.704Z,66.60
2018-12-31T09:14:13.220Z,66.57
2018-12-31T09:16:44.591Z,66.57
2018-12-31T09:19:16.066Z,66.58
2018-12-31T09:21:47.664Z,66.59
2018-12-31T09:24:19.134Z,66.62
2018-12-31T09:26:50.713Z,66.66
2018-12-31T09:29:22.319Z,66.66
2018-12-31T09:31:53.650Z,66.67
2018-12-31T09:34:25.090Z,66.67
2018-12-31T09:36:56.364Z,66.66
2018-12-31T09:39:27.600Z,66.67
2018-12-31T09:41:58.801Z,66.67
2018-12-31T09:44:30.027Z,66.67
2018-12-31T09:47:01.201Z,66.68
2018-12-31T09:49:32.491Z,66.68
2018-12-31T09:52:03.705Z,66.68
2018-12-31T09:54:34.965Z,66.67
2018-12-31T09:57:06.305Z,66.65
2018-12-31T09:59:37.556Z,66.66
2018-12-31T10:02:08.702Z,66.65
2018-12-31T10:04:40.012Z,66.64
2018-12-31T10:07:11.173Z,66.63
2018-12-31T10:09:42.445Z,66.64
2018-12-31T10:12:13.647Z,66.62
2018-12-31T10:14:44.878Z,66.64
2018-12-31T10:17:16.038Z,66.62
2018-12-31T10:19:47.272Z,66.60
2018-12-31T10:22:18.415Z,66.60
2018-12-31T10:24:49.722Z,66.60
2018-12-31T10:27:20.878Z,66.65
2018-12-31T10:29:52.105Z,66.65
2018-12-31T10:32:23.344Z,66.62
2018-12-31T10:34:54.717Z,66.59
2018-12-31T10:37:25.966Z,66.53
2018-12-31T10:39:57.133Z,66.52
2018-12-31T10:42:28.428Z,66.53
2018-12-31T10:44:59.610Z,66.58
2018-12-31T10:47:30.803Z,66.65
2018-12-31T10:50:01.991Z,66.71
2018-12-31T10:52:33.196Z,66.73
2018-12-31T10:55:04.390Z,66.83
2018-12-31T10:57:35.540Z,66.90
2018-12-31T11:00:08.308Z,66.91
2018-12-31T11:02:39.513Z,67.00
2018-12-31T11:05:10.712Z,67.05
2018-12-31T11:07:41.916Z,67.04
2018-12-31T11:10:13.171Z,67.08
2018-12-31T11:12:44.448Z,67.08
2018-12-31T11:15:15.746Z,67.08
2018-12-31T11:17:47.001Z,67.04
2018-12-31T11:20:18.153Z,67.05
2018-12-31T11:22:49.399Z,67.00
2018-12-31T11:25:20.614Z,67.01
2018-12-31T11:27:51.811Z,66.94
2018-12-31T11:30:23.162Z,66.93
2018-12-31T11:32:54.370Z,66.89
2018-12-31T11:35:25.587Z,66.84
2018-12-31T11:37:56.839Z,66.79
2018-12-31T11:40:28.019Z,66.77
2018-12-31T11:42:59.529Z,66.70
2018-12-31T11:45:30.715Z,66.67
2018-12-31T11:48:02.002Z,66.65
2018-12-31T11:50:33.209Z,66.64
2018-12-31T11:53:04.448Z,66.58
2018-12-31T11:55:35.681Z,66.53
2018-12-31T11:58:06.851Z,66.49
2018-12-31T12:00:38.041Z,66.42
2018-12-31T12:03:09.224Z,66.35
2018-12-31T12:05:40.427Z,66.34
2018-12-31T12:08:11.635Z,66.31
2018-12-31T12:10:42.812Z,66.26
2018-12-31T12:13:14.038Z,66.25
2018-12-31T12:15:45.578Z,66.21
2018-12-31T12:18:16.905Z,66.16
2018-12-31T12:20:48.162Z,66.14
2018-12-31T12:23:19.345Z,66.10
2018-12-31T12:25:50.499Z,66.06
2018-12-31T12:28:21.699Z,66.05
2018-12-31T12:30:52.932Z,66.05
2018-12-31T12:33:24.268Z,65.99
2018-12-31T12:35:55.483Z,65.96
2018-12-31T12:38:26.723Z,65.94
2018-12-31T12:40:57.922Z,65.91
2018-12-31T12:43:29.170Z,65.88
2018-12-31T12:46:00.336Z,65.85
2018-12-31T12:48:32.041Z,65.81
2018-12-31T12:51:03.308Z,65.79
2018-12-31T12:53:34.469Z,65.76
2018-12-31T12:56:05.687Z,65.79
2018-12-31T12:58:37.091Z,65.84
2018-12-31T13:01:08.363Z,65.89
2018-12-31T13:03:39.561Z,65.95
2018-12-31T13:06:10.773Z,66.03
2018-12-31T13:08:41.977Z,66.15
2018-12-31T13:11:13.274Z,66.23
2018-12-31T13:13:44.636Z,66.40
2018-12-31T13:16:15.871Z,66.51
2018-12-31T13:18:47.057Z,66.56
2018-12-31T13:21:18.335Z,66.62
2018-12-31T13:23:50.591Z,66.65
2018-12-31T13:26:21.765Z,66.63
2018-12-31T13:28:53.013Z,66.64
2018-12-31T13:31:24.316Z,66.69
2018-12-31T13:33:55.507Z,66.67
2018-12-31T13:36:26.707Z,66.71
2018-12-31T13:38:57.909Z,66.68
2018-12-31T13:41:29.518Z,66.68
2018-12-31T13:44:00.678Z,66.72
2018-12-31T13:46:32.050Z,66.87
2018-12-31T13:49:03.254Z,66.98
2018-12-31T13:51:34.597Z,66.99
2018-12-31T13:54:05.787Z,67.13
2018-12-31T13:56:37.214Z,67.09
2018-12-31T13:59:08.482Z,67.20
2018-12-31T14:01:39.654Z,67.10
2018-12-31T14:04:10.976Z,67.07
2018-12-31T14:06:42.182Z,67.06
2018-12-31T14:09:13.379Z,67.03
2018-12-31T14:11:44.555Z,67.05
2018-12-31T14:16:59.323Z,66.97
2018-12-31T14:19:30.654Z,66.96
2018-12-31T14:22:01.860Z,66.93
2018-12-31T14:24:33.182Z,66.90
2018-12-31T14:27:04.340Z,66.86
2018-12-31T14:29:35.505Z,66.81
2018-12-31T14:32:06.734Z,66.75
2018-12-31T14:34:38.026Z,66.73
2018-12-31T14:37:09.196Z,66.70
2018-12-31T14:39:40.429Z,66.66
2018-12-31T14:42:11.822Z,66.64
2018-12-31T14:44:43.317Z,66.61
2018-12-31T14:47:18.318Z,66.61
2018-12-31T14:49:47.446Z,66.61
2018-12-31T14:52:18.663Z,66.66
2018-12-31T14:54:50.164Z,66.67
2018-12-31T14:57:21.409Z,66.69
2018-12-31T14:59:52.553Z,66.66
2018-12-31T15:02:23.782Z,66.67
2018-12-31T15:04:55.092Z,66.64
2018-12-31T15:07:26.286Z,66.64
2018-12-31T15:09:57.561Z,66.65
2018-12-31T15:12:28.712Z,66.66
2018-12-31T15:14:59.922Z,66.65
2018-12-31T15:17:31.288Z,66.65
2018-12-31T15:20:02.510Z,66.67
2018-12-31T15:22:33.817Z,66.67
2018-12-31T15:25:05.018Z,66.71
2018-12-31T15:27:36.486Z,66.70
2018-12-31T15:30:08.671Z,66.73
2018-12-31T15:32:40.020Z,66.77
2018-12-31T15:35:11.225Z,66.78
2018-12-31T15:37:42.936Z,66.75
2018-12-31T15:40:14.197Z,66.86
2018-12-31T15:42:45.394Z,66.90
2018-12-31T15:45:16.690Z,66.90
2018-12-31T15:47:47.922Z,66.98
2018-12-31T15:50:19.171Z,67.06
2018-12-31T15:52:50.389Z,67.18
2018-12-31T15:55:21.683Z,67.23
2018-12-31T15:57:52.866Z,67.27
2018-12-31T16:00:24.144Z,67.29
2018-12-31T16:02:55.645Z,67.32
2018-12-31T16:05:26.929Z,67.37
2018-12-31T16:07:58.129Z,67.42
2018-12-31T16:10:30.279Z,67.48
2018-12-31T16:13:01.763Z,67.48
2018-12-31T16:15:33.048Z,67.53
2018-12-31T16:18:05.831Z,67.67
2018-12-31T16:20:37.069Z,67.75
2018-12-31T16:23:08.397Z,67.88
2018-12-31T16:25:39.776Z,68.06
2018-12-31T16:28:10.977Z,68.13
2018-12-31T16:30:42.254Z,68.15
2018-12-31T16:33:13.600Z,68.42
2018-12-31T16:35:44.896Z,68.39
2018-12-31T16:38:16.199Z,68.55
2018-12-31T16:40:47.428Z,68.65
2018-12-31T16:43:18.873Z,68.63
2018-12-31T16:45:50.218Z,68.88
2018-12-31T16:48:21.467Z,69.13
2018-12-31T16:50:52.765Z,69.00
2018-12-31T16:53:24.378Z,69.21
2018-12-31T16:55:56.758Z,69.22
2018-12-31T16:58:28.132Z,69.43
2018-12-31T17:00:59.493Z,69.48
2018-12-31T17:03:30.726Z,69.83
2018-12-31T17:06:01.931Z,69.36
2018-12-31T17:08:33.367Z,69.26
2018-12-31T17:11:04.785Z,69.22
2018-12-31T17:13:36.161Z,69.44
2018-12-31T17:16:07.806Z,69.61
2018-12-31T17:18:39.055Z,69.40
2018-12-31T17:21:10.195Z,69.31
2018-12-31T17:23:41.428Z,69.34
2018-12-31T17:26:12.828Z,69.25
2018-12-31T17:28:44.223Z,69.32
2018-12-31T17:31:15.671Z,69.24
2018-12-31T17:33:47.056Z,69.26
2018-12-31T17:36:18.331Z,69.30
2018-12-31T17:38:49.644Z,69.26
2018-12-31T17:41:21.009Z,69.48
2018-12-31T17:43:52.235Z,69.21
2018-12-31T17:46:23.477Z,69.34
2018-12-31T17:48:55.204Z,69.24
2018-12-31T17:51:26.533Z,69.52
2018-12-31T17:53:57.966Z,69.28
2018-12-31T17:56:29.181Z,69.34
2018-12-31T17:59:00.515Z,69.38
2018-12-31T18:01:32.188Z,69.38
2018-12-31T18:04:03.634Z,69.41
2018-12-31T18:06:35.179Z,69.38
2018-12-31T18:09:08.074Z,69.58
2018-12-31T18:11:39.334Z,69.48
2018-12-31T18:14:10.519Z,69.43
2018-12-31T18:16:41.790Z,69.43
2018-12-31T18:19:12.963Z,69.33
2018-12-31T18:21:44.349Z,69.55
2018-12-31T18:24:15.625Z,69.44
2018-12-31T18:26:48.039Z,69.47
2018-12-31T18:29:19.359Z,69.55
2018-12-31T18:31:50.973Z,69.56
2018-12-31T18:34:22.449Z,69.56
2018-12-31T18:36:53.896Z,69.81
2018-12-31T18:39:25.312Z,69.70
2018-12-31T18:41:56.559Z,69.58
2018-12-31T18:44:27.928Z,69.58
2018-12-31T18:46:59.273Z,69.61
2018-12-31T18:49:30.979Z,69.71
2018-12-31T18:52:02.330Z,69.86
2018-12-31T18:54:33.527Z,69.82
2018-12-31T18:57:04.877Z,69.66
2018-12-31T18:59:36.115Z,69.77
2018-12-31T19:02:07.462Z,69.66
2018-12-31T19:04:39.281Z,69.79
2018-12-31T19:07:10.631Z,69.77
2018-12-31T19:09:42.300Z,69.74
2018-12-31T19:12:13.589Z,69.81
2018-12-31T19:14:45.040Z,69.66
2018-12-31T19:17:16.604Z,69.59
2018-12-31T19:19:48.061Z,69.60
2018-12-31T19:22:19.497Z,69.71
2018-12-31T19:25:11.434Z,69.86
2018-12-31T19:27:49.333Z,69.72
2018-12-31T19:30:20.711Z,69.83
2018-12-31T19:32:52.287Z,69.81
2018-12-31T19:35:23.613Z,69.69
2018-12-31T19:37:54.872Z,69.70
2018-12-31T19:40:26.069Z,69.73
2018-12-31T19:42:57.326Z,69.60
2018-12-31T19:45:29.054Z,69.60
2018-12-31T19:48:00.368Z,69.50
2018-12-31T19:50:31.711Z,69.41
2018-12-31T19:53:03.016Z,69.33
2018-12-31T19:55:34.523Z,69.25
2018-12-31T19:58:05.760Z,69.18
2018-12-31T20:00:37.019Z,69.10
2018-12-31T20:03:08.629Z,69.03
2018-12-31T20:05:40.223Z,68.93
2018-12-31T20:08:11.636Z,68.90
2018-12-31T20:10:58.120Z,68.87
2018-12-31T20:13:34.680Z,68.82
2018-12-31T20:16:06.009Z,68.81
2018-12-31T20:18:37.510Z,68.75
2018-12-31T20:21:08.671Z,68.67
2018-12-31T20:23:40.392Z,68.62
2018-12-31T20:26:11.961Z,68.57
2018-12-31T20:28:43.297Z,68.50
2018-12-31T20:31:14.662Z,68.47
2018-12-31T20:33:45.904Z,68.43
2018-12-31T20:36:17.378Z,68.37
2018-12-31T20:38:48.741Z,68.32
2018-12-31T20:41:20.125Z,68.26
2018-12-31T20:43:51.405Z,68.22
2018-12-31T20:46:22.652Z,68.20
2018-12-31T20:48:53.909Z,68.18
2018-12-31T20:51:25.273Z,68.18
2018-12-31T20:53:56.725Z,68.17
2018-12-31T20:56:28.003Z,68.14
2018-12-31T20:58:59.241Z,68.17
2018-12-31T21:01:30.716Z,68.13
2018-12-31T21:04:01.991Z,68.14
2018-12-31T21:06:33.414Z,68.13
2018-12-31T21:09:06.983Z,68.17
2018-12-31T21:11:38.544Z,68.15
2018-12-31T21:14:09.761Z,68.10
2018-12-31T21:16:41.156Z,68.09
2018-12-31T21:19:12.379Z,68.07
2018-12-31T21:21:43.798Z,68.09
2018-12-31T21:24:15.160Z,68.11
2018-12-31T21:26:55.726Z,68.11
2018-12-31T21:29:27.532Z,68.14
2018-12-31T21:31:58.978Z,68.12
2018-12-31T21:34:30.433Z,68.10
2018-12-31T21:37:01.669Z,68.13
2018-12-31T21:39:32.864Z,68.15
2018-12-31T21:42:05.295Z,68.13
2018-12-31T21:44:38.010Z,68.14
2018-12-31T21:47:09.321Z,68.15
2018-12-31T21:49:40.604Z,68.19
2018-12-31T21:52:11.861Z,68.27
2018-12-31T21:54:43.602Z,68.26
2018-12-31T21:57:16.081Z,68.38
2018-12-31T21:59:48.460Z,68.42
2018-12-31T22:02:24.336Z,68.49
2018-12-31T22:04:58.545Z,68.54
2018-12-31T22:07:30.840Z,68.63
2018-12-31T22:10:03.034Z,68.70
2018-12-31T22:12:34.615Z,68.88
2018-12-31T22:15:10.026Z,68.89
2018-12-31T22:17:41.621Z,69.03
2018-12-31T22:20:12.990Z,69.03
2018-12-31T22:22:44.304Z,69.19
2018-12-31T22:25:15.772Z,69.34
2018-12-31T22:27:47.157Z,69.36
2018-12-31T22:30:18.542Z,69.54
2018-12-31T22:32:49.791Z,69.61
2018-12-31T22:35:21.121Z,69.76
2018-12-31T22:37:52.721Z,69.68
2018-12-31T22:40:24.053Z,69.90
2018-12-31T22:42:55.648Z,70.13
2018-12-31T22:45:26.944Z,70.04
2018-12-31T22:47:58.435Z,69.88
2018-12-31T22:50:29.704Z,70.36
2018-12-31T22:53:00.957Z,70.54
2018-12-31T22:55:32.243Z,70.55
2018-12-31T22:58:03.489Z,70.62
2018-12-31T23:00:36.687Z,70.77
2018-12-31T23:03:10.288Z,70.97
2018-12-31T23:05:41.582Z,70.95
2018-12-31T23:08:12.808Z,70.74
2018-12-31T23:10:44.946Z,70.66
2018-12-31T23:13:16.294Z,70.92
2018-12-31T23:15:47.606Z,71.16
2018-12-31T23:18:18.812Z,71.18
2018-12-31T23:20:50.377Z,71.28
2018-12-31T23:23:21.547Z,71.50
2018-12-31T23:25:53.084Z,71.19
2018-12-31T23:28:24.470Z,71.58
2018-12-31T23:30:56.167Z,71.44
2018-12-31T23:33:27.449Z,71.57
2018-12-31T23:35:58.764Z,71.47
2018-12-31T23:38:30.040Z,71.22
2018-12-31T23:41:01.412Z,71.36
2018-12-31T23:43:32.726Z,71.52
2018-12-31T23:46:04.023Z,71.32
2018-12-31T23:48:35.325Z,71.34
2018-12-31T23:51:06.537Z,71.18
2018-12-31T23:53:38.216Z,71.06
2018-12-31T23:56:09.504Z,70.79
2018-12-31T23:58:40.821Z,71.18
